sensor_id;sensor_type;location;lat;lon;timestamp;pressure;altitude;pressure_sealevel;temperature;humidity
11971;BME280;6045;42.682;23.294;2023-02-03T00:01:32;94871.91;;;3.38;74.06
11971;BME280;6045;42.682;23.294;2023-02-03T00:03:59;94861.34;;;3.38;74.60
11971;BME280;6045;42.682;23.294;2023-02-03T00:06:26;94871.03;;;3.45;75.72
11971;BME280;6045;42.682;23.294;2023-02-03T00:08:54;94858.34;;;3.41;75.63
11971;BME280;6045;42.682;23.294;2023-02-03T00:11:22;94870.50;;;3.27;75.94
11971;BME280;6045;42.682;23.294;2023-02-03T00:13:50;94875.97;;;3.26;76.61
11971;BME280;6045;42.682;23.294;2023-02-03T00:16:17;94882.34;;;3.17;76.90
11971;BME280;6045;42.682;23.294;2023-02-03T00:18:44;94878.78;;;3.10;77.44
11971;BME280;6045;42.682;23.294;2023-02-03T00:21:11;94882.06;;;3.12;77.99
11971;BME280;6045;42.682;23.294;2023-02-03T00:23:39;94877.00;;;3.02;78.46
11971;BME280;6045;42.682;23.294;2023-02-03T00:26:07;94883.47;;;3.00;79.23
11971;BME280;6045;42.682;23.294;2023-02-03T00:28:34;94880.91;;;2.92;79.71
11971;BME280;6045;42.682;23.294;2023-02-03T00:31:02;94880.09;;;2.91;80.21
11971;BME280;6045;42.682;23.294;2023-02-03T00:33:29;94875.78;;;2.90;80.35
11971;BME280;6045;42.682;23.294;2023-02-03T00:35:58;94879.91;;;2.93;80.70
11971;BME280;6045;42.682;23.294;2023-02-03T00:38:26;94890.09;;;2.96;80.61
11971;BME280;6045;42.682;23.294;2023-02-03T00:40:53;94898.75;;;2.90;80.53
11971;BME280;6045;42.682;23.294;2023-02-03T00:43:20;94893.09;;;2.93;80.89
11971;BME280;6045;42.682;23.294;2023-02-03T00:45:47;94898.66;;;2.98;80.77
11971;BME280;6045;42.682;23.294;2023-02-03T00:48:15;94900.97;;;3.01;80.76
11971;BME280;6045;42.682;23.294;2023-02-03T00:50:44;94884.63;;;2.97;80.85
11971;BME280;6045;42.682;23.294;2023-02-03T00:53:11;94887.13;;;2.99;80.94
11971;BME280;6045;42.682;23.294;2023-02-03T00:55:37;94901.78;;;3.01;80.80
11971;BME280;6045;42.682;23.294;2023-02-03T00:58:04;94901.31;;;2.98;81.12
11971;BME280;6045;42.682;23.294;2023-02-03T01:00:31;94896.84;;;2.98;81.12
11971;BME280;6045;42.682;23.294;2023-02-03T01:02:58;94904.84;;;3.13;81.01
11971;BME280;6045;42.682;23.294;2023-02-03T01:05:26;94910.56;;;3.16;80.70
11971;BME280;6045;42.682;23.294;2023-02-03T01:07:53;94913.75;;;3.12;80.75
11971;BME280;6045;42.682;23.294;2023-02-03T01:10:19;94912.47;;;3.08;81.21
11971;BME280;6045;42.682;23.294;2023-02-03T01:12:46;94922.72;;;3.03;81.46
11971;BME280;6045;42.682;23.294;2023-02-03T01:15:13;94914.50;;;2.98;81.33
11971;BME280;6045;42.682;23.294;2023-02-03T01:17:40;94915.69;;;2.95;80.65
11971;BME280;6045;42.682;23.294;2023-02-03T01:20:08;94914.13;;;2.78;80.89
11971;BME280;6045;42.682;23.294;2023-02-03T01:22:37;94914.31;;;2.76;80.80
11971;BME280;6045;42.682;23.294;2023-02-03T01:25:05;94914.03;;;2.71;80.98
11971;BME280;6045;42.682;23.294;2023-02-03T01:27:32;94915.44;;;2.82;80.98
11971;BME280;6045;42.682;23.294;2023-02-03T01:29:59;94910.34;;;2.81;79.99
11971;BME280;6045;42.682;23.294;2023-02-03T01:32:26;94899.88;;;2.64;79.86
11971;BME280;6045;42.682;23.294;2023-02-03T01:34:52;94901.69;;;2.64;80.27
11971;BME280;6045;42.682;23.294;2023-02-03T01:37:19;94906.81;;;2.65;80.23
11971;BME280;6045;42.682;23.294;2023-02-03T01:39:47;94905.16;;;2.64;80.57
11971;BME280;6045;42.682;23.294;2023-02-03T01:42:14;94916.88;;;2.62;79.90
11971;BME280;6045;42.682;23.294;2023-02-03T01:44:43;94918.78;;;2.45;80.28
11971;BME280;6045;42.682;23.294;2023-02-03T01:47:19;94926.56;;;2.39;80.86
11971;BME280;6045;42.682;23.294;2023-02-03T01:49:52;94931.66;;;2.40;81.19
11971;BME280;6045;42.682;23.294;2023-02-03T01:52:20;94935.63;;;2.44;80.92
11971;BME280;6045;42.682;23.294;2023-02-03T01:54:49;94937.25;;;2.45;80.80
11971;BME280;6045;42.682;23.294;2023-02-03T01:57:21;94930.81;;;2.48;80.40
11971;BME280;6045;42.682;23.294;2023-02-03T01:59:51;94929.19;;;2.47;80.06
11971;BME280;6045;42.682;23.294;2023-02-03T02:02:19;94930.81;;;2.48;80.15
11971;BME280;6045;42.682;23.294;2023-02-03T02:04:51;94931.66;;;2.48;80.19
11971;BME280;6045;42.682;23.294;2023-02-03T02:07:19;94929.13;;;2.55;80.05
11971;BME280;6045;42.682;23.294;2023-02-03T02:09:46;94932.19;;;2.66;79.70
11971;BME280;6045;42.682;23.294;2023-02-03T02:12:15;94940.47;;;2.63;78.99
11971;BME280;6045;42.682;23.294;2023-02-03T02:14:43;94940.47;;;2.63;78.96
11971;BME280;6045;42.682;23.294;2023-02-03T02:17:19;94942.22;;;2.71;79.07
11971;BME280;6045;42.682;23.294;2023-02-03T02:20:13;94945.53;;;2.73;78.20
11971;BME280;6045;42.682;23.294;2023-02-03T02:22:56;94947.69;;;2.69;78.50
11971;BME280;6045;42.682;23.294;2023-02-03T02:25:40;94946.41;;;2.65;78.41
11971;BME280;6045;42.682;23.294;2023-02-03T02:34:21;94945.88;;;2.39;79.39
11971;BME280;6045;42.682;23.294;2023-02-03T02:37:01;94953.13;;;2.37;79.94
11971;BME280;6045;42.682;23.294;2023-02-03T02:39:37;94944.09;;;2.32;79.26
11971;BME280;6045;42.682;23.294;2023-02-03T02:42:08;94950.97;;;2.41;79.34
11971;BME280;6045;42.682;23.294;2023-02-03T02:44:43;94950.13;;;2.40;79.32
11971;BME280;6045;42.682;23.294;2023-02-03T02:47:16;94944.50;;;2.51;78.37
11971;BME280;6045;42.682;23.294;2023-02-03T02:49:52;94933.81;;;2.45;78.71
11971;BME280;6045;42.682;23.294;2023-02-03T02:52:21;94956.72;;;2.44;78.29
11971;BME280;6045;42.682;23.294;2023-02-03T02:54:52;94969.56;;;2.47;78.52
11971;BME280;6045;42.682;23.294;2023-02-03T02:57:22;94967.22;;;2.52;78.96
11971;BME280;6045;42.682;23.294;2023-02-03T02:59:49;94957.50;;;2.53;78.20
11971;BME280;6045;42.682;23.294;2023-02-03T03:02:16;94984.19;;;2.58;77.76
11971;BME280;6045;42.682;23.294;2023-02-03T03:04:46;94974.78;;;2.55;76.42
11971;BME280;6045;42.682;23.294;2023-02-03T03:07:17;94977.47;;;2.47;75.67
11971;BME280;6045;42.682;23.294;2023-02-03T03:09:47;94975.84;;;2.46;75.82
11971;BME280;6045;42.682;23.294;2023-02-03T03:12:17;94981.13;;;2.46;76.21
11971;BME280;6045;42.682;23.294;2023-02-03T03:14:47;94984.56;;;2.47;76.08
11971;BME280;6045;42.682;23.294;2023-02-03T03:17:19;94978.59;;;2.53;76.21
11971;BME280;6045;42.682;23.294;2023-02-03T03:19:52;94993.13;;;2.49;75.83
11971;BME280;6045;42.682;23.294;2023-02-03T03:22:25;94990.63;;;2.55;74.88
11971;BME280;6045;42.682;23.294;2023-02-03T03:24:58;94990.97;;;2.52;74.51
11971;BME280;6045;42.682;23.294;2023-02-03T03:27:29;94998.34;;;2.57;74.30
11971;BME280;6045;42.682;23.294;2023-02-03T03:30:01;94995.44;;;2.52;73.94
11971;BME280;6045;42.682;23.294;2023-02-03T03:32:31;94993.28;;;2.47;73.79
11971;BME280;6045;42.682;23.294;2023-02-03T03:35:00;94993.28;;;2.47;74.15
11971;BME280;6045;42.682;23.294;2023-02-03T03:37:33;95000.75;;;2.36;73.74
11971;BME280;6045;42.682;23.294;2023-02-03T03:40:07;94988.78;;;2.25;74.26
11971;BME280;6045;42.682;23.294;2023-02-03T03:42:37;94984.47;;;2.24;74.62
11971;BME280;6045;42.682;23.294;2023-02-03T03:45:10;94991.59;;;2.24;74.68
11971;BME280;6045;42.682;23.294;2023-02-03T03:47:43;94986.16;;;2.17;75.18
11971;BME280;6045;42.682;23.294;2023-02-03T03:50:17;94990.97;;;2.14;75.59
11971;BME280;6045;42.682;23.294;2023-02-03T03:52:45;94987.66;;;2.12;75.60
11971;BME280;6045;42.682;23.294;2023-02-03T03:55:15;94985.69;;;2.14;75.60
11971;BME280;6045;42.682;23.294;2023-02-03T03:57:46;94978.28;;;2.09;75.51
11971;BME280;6045;42.682;23.294;2023-02-03T04:00:19;94964.97;;;1.94;75.89
11971;BME280;6045;42.682;23.294;2023-02-03T04:02:50;94981.25;;;1.98;76.11
11971;BME280;6045;42.682;23.294;2023-02-03T04:05:21;94976.34;;;1.95;76.29
11971;BME280;6045;42.682;23.294;2023-02-03T04:07:48;94985.56;;;1.99;76.64
11971;BME280;6045;42.682;23.294;2023-02-03T04:10:21;94980.78;;;2.02;76.70
11971;BME280;6045;42.682;23.294;2023-02-03T04:12:50;94980.09;;;2.00;76.58
11971;BME280;6045;42.682;23.294;2023-02-03T04:15:17;94986.53;;;1.98;76.86
11971;BME280;6045;42.682;23.294;2023-02-03T04:17:44;94995.41;;;2.05;76.26
11971;BME280;6045;42.682;23.294;2023-02-03T04:20:11;94998.41;;;2.02;75.87
11971;BME280;6045;42.682;23.294;2023-02-03T04:22:39;95002.34;;;1.98;76.15
11971;BME280;6045;42.682;23.294;2023-02-03T04:25:07;95008.28;;;2.00;76.58
11971;BME280;6045;42.682;23.294;2023-02-03T04:27:34;95008.59;;;2.05;76.62
11971;BME280;6045;42.682;23.294;2023-02-03T04:30:01;95021.63;;;2.06;76.45
11971;BME280;6045;42.682;23.294;2023-02-03T04:32:27;95026.72;;;2.08;76.26
11971;BME280;6045;42.682;23.294;2023-02-03T04:34:55;95025.03;;;2.15;75.98
11971;BME280;6045;42.682;23.294;2023-02-03T04:37:22;95025.03;;;2.15;75.88
11971;BME280;6045;42.682;23.294;2023-02-03T04:39:52;95039.53;;;2.19;76.20
11971;BME280;6045;42.682;23.294;2023-02-03T04:42:20;95035.91;;;2.20;75.84
11971;BME280;6045;42.682;23.294;2023-02-03T04:44:46;95036.09;;;2.19;76.07
11971;BME280;6045;42.682;23.294;2023-02-03T04:47:13;95044.16;;;2.25;75.87
11971;BME280;6045;42.682;23.294;2023-02-03T04:49:40;95049.59;;;2.24;75.41
11971;BME280;6045;42.682;23.294;2023-02-03T04:52:07;95045.81;;;2.18;75.49
11971;BME280;6045;42.682;23.294;2023-02-03T04:54:34;95053.03;;;2.24;75.26
11971;BME280;6045;42.682;23.294;2023-02-03T04:57:02;95057.97;;;2.19;75.65
11971;BME280;6045;42.682;23.294;2023-02-03T04:59:29;95065.56;;;2.22;75.97
11971;BME280;6045;42.682;23.294;2023-02-03T05:01:56;95059.47;;;2.30;75.55
11971;BME280;6045;42.682;23.294;2023-02-03T05:04:23;95060.75;;;2.34;74.97
11971;BME280;6045;42.682;23.294;2023-02-03T05:06:50;95055.81;;;2.39;74.83
11971;BME280;6045;42.682;23.294;2023-02-03T05:09:17;95066.69;;;2.36;74.67
11971;BME280;6045;42.682;23.294;2023-02-03T05:11:44;95057.00;;;3.36;93.49
11971;BME280;6045;42.682;23.294;2023-02-03T05:14:12;95056.09;;;5.35;100.00
11971;BME280;6045;42.682;23.294;2023-02-03T05:16:38;95068.63;;;6.54;99.30
11971;BME280;6045;42.682;23.294;2023-02-03T05:19:05;95079.09;;;6.96;84.04
11971;BME280;6045;42.682;23.294;2023-02-03T05:21:33;95082.16;;;7.40;71.48
11971;BME280;6045;42.682;23.294;2023-02-03T05:23:59;95081.88;;;7.76;68.59
11971;BME280;6045;42.682;23.294;2023-02-03T05:26:28;95086.50;;;8.48;64.76
11971;BME280;6045;42.682;23.294;2023-02-03T05:28:54;95084.72;;;9.19;61.93
11971;BME280;6045;42.682;23.294;2023-02-03T05:31:23;95096.59;;;9.80;56.80
11971;BME280;6045;42.682;23.294;2023-02-03T05:33:49;95091.53;;;9.08;50.74
11971;BME280;6045;42.682;23.294;2023-02-03T05:36:16;95088.72;;;7.44;54.71
11971;BME280;6045;42.682;23.294;2023-02-03T05:38:43;95104.06;;;5.76;59.62
11971;BME280;6045;42.682;23.294;2023-02-03T05:41:11;95096.59;;;5.29;61.69
11971;BME280;6045;42.682;23.294;2023-02-03T05:43:55;95097.19;;;4.96;63.39
11971;BME280;6045;42.682;23.294;2023-02-03T05:46:23;95096.81;;;4.69;68.04
11971;BME280;6045;42.682;23.294;2023-02-03T05:48:50;95091.19;;;4.21;67.10
11971;BME280;6045;42.682;23.294;2023-02-03T05:51:17;95103.22;;;3.63;68.33
11971;BME280;6045;42.682;23.294;2023-02-03T05:53:43;95101.09;;;3.36;69.75
11971;BME280;6045;42.682;23.294;2023-02-03T05:56:10;95098.56;;;3.12;71.05
11971;BME280;6045;42.682;23.294;2023-02-03T05:58:39;95116.16;;;2.89;72.10
11971;BME280;6045;42.682;23.294;2023-02-03T06:01:05;95109.28;;;2.80;72.87
11971;BME280;6045;42.682;23.294;2023-02-03T06:03:34;95121.00;;;2.69;73.23
11971;BME280;6045;42.682;23.294;2023-02-03T06:06:00;95116.34;;;2.87;72.48
11971;BME280;6045;42.682;23.294;2023-02-03T06:08:27;95123.94;;;3.21;71.27
11971;BME280;6045;42.682;23.294;2023-02-03T06:10:56;95115.63;;;3.01;71.66
11971;BME280;6045;42.682;23.294;2023-02-03T06:13:24;95127.75;;;2.71;72.44
11971;BME280;6045;42.682;23.294;2023-02-03T06:15:50;95128.47;;;3.04;72.47
11971;BME280;6045;42.682;23.294;2023-02-03T06:18:17;95129.22;;;4.20;68.87
11971;BME280;6045;42.682;23.294;2023-02-03T06:20:45;95114.88;;;5.10;65.10
11971;BME280;6045;42.682;23.294;2023-02-03T06:23:12;95133.13;;;6.05;61.59
11971;BME280;6045;42.682;23.294;2023-02-03T06:25:41;95126.56;;;7.06;58.02
11971;BME280;6045;42.682;23.294;2023-02-03T06:28:08;95134.34;;;7.07;55.29
11971;BME280;6045;42.682;23.294;2023-02-03T06:30:34;95134.75;;;6.49;56.99
11971;BME280;6045;42.682;23.294;2023-02-03T06:33:01;95142.00;;;6.61;57.63
11971;BME280;6045;42.682;23.294;2023-02-03T06:35:28;95133.81;;;6.90;55.70
11971;BME280;6045;42.682;23.294;2023-02-03T06:37:56;95139.22;;;7.38;53.90
11971;BME280;6045;42.682;23.294;2023-02-03T06:40:23;95142.19;;;7.63;53.40
11971;BME280;6045;42.682;23.294;2023-02-03T06:42:50;95150.53;;;7.53;52.96
11971;BME280;6045;42.682;23.294;2023-02-03T06:45:17;95159.03;;;7.76;52.57
11971;BME280;6045;42.682;23.294;2023-02-03T06:47:44;95155.41;;;7.43;53.01
11971;BME280;6045;42.682;23.294;2023-02-03T06:50:12;95144.97;;;6.73;54.48
11971;BME280;6045;42.682;23.294;2023-02-03T06:52:40;95176.81;;;6.03;56.36
11971;BME280;6045;42.682;23.294;2023-02-03T06:55:08;95169.59;;;5.82;58.19
11971;BME280;6045;42.682;23.294;2023-02-03T06:57:42;95162.97;;;6.50;55.09
11971;BME280;6045;42.682;23.294;2023-02-03T07:00:10;95162.88;;;7.26;53.47
11971;BME280;6045;42.682;23.294;2023-02-03T07:02:37;95171.75;;;7.40;53.46
11971;BME280;6045;42.682;23.294;2023-02-03T07:05:05;95165.38;;;8.68;49.68
11971;BME280;6045;42.682;23.294;2023-02-03T07:07:31;95163.81;;;9.57;48.24
11971;BME280;6045;42.682;23.294;2023-02-03T07:09:58;95165.59;;;10.90;45.46
11971;BME280;6045;42.682;23.294;2023-02-03T07:12:26;95172.41;;;11.11;43.55
11971;BME280;6045;42.682;23.294;2023-02-03T07:14:53;95160.22;;;11.76;42.04
11971;BME280;6045;42.682;23.294;2023-02-03T07:17:20;95162.09;;;12.23;41.39
11971;BME280;6045;42.682;23.294;2023-02-03T07:19:47;95162.09;;;11.93;40.09
11971;BME280;6045;42.682;23.294;2023-02-03T07:22:13;95160.34;;;11.62;40.53
11971;BME280;6045;42.682;23.294;2023-02-03T07:24:40;95168.94;;;10.79;42.31
11971;BME280;6045;42.682;23.294;2023-02-03T07:27:07;95174.06;;;11.05;42.89
11971;BME280;6045;42.682;23.294;2023-02-03T07:29:35;95177.19;;;11.27;41.44
11971;BME280;6045;42.682;23.294;2023-02-03T07:32:02;95173.25;;;11.90;40.54
11971;BME280;6045;42.682;23.294;2023-02-03T07:34:29;95178.84;;;12.66;39.89
11971;BME280;6045;42.682;23.294;2023-02-03T07:36:55;95181.44;;;13.14;37.42
11971;BME280;6045;42.682;23.294;2023-02-03T07:39:22;95182.91;;;13.10;37.39
11971;BME280;6045;42.682;23.294;2023-02-03T07:41:49;95174.22;;;12.96;37.49
11971;BME280;6045;42.682;23.294;2023-02-03T07:44:16;95186.94;;;11.82;38.85
11971;BME280;6045;42.682;23.294;2023-02-03T07:46:44;95187.81;;;12.12;39.75
11971;BME280;6045;42.682;23.294;2023-02-03T07:49:11;95188.28;;;12.69;39.17
11971;BME280;6045;42.682;23.294;2023-02-03T07:51:38;95178.03;;;13.07;37.05
11971;BME280;6045;42.682;23.294;2023-02-03T07:54:05;95193.06;;;12.67;37.19
11971;BME280;6045;42.682;23.294;2023-02-03T07:56:32;95184.59;;;12.22;39.17
11971;BME280;6045;42.682;23.294;2023-02-03T07:58:59;95191.28;;;13.02;37.55
11971;BME280;6045;42.682;23.294;2023-02-03T08:01:26;95190.50;;;13.13;37.71
11971;BME280;6045;42.682;23.294;2023-02-03T08:03:54;95196.97;;;13.47;36.88
11971;BME280;6045;42.682;23.294;2023-02-03T08:06:21;95193.78;;;13.38;36.35
11971;BME280;6045;42.682;23.294;2023-02-03T08:08:48;95198.44;;;13.20;36.85
11971;BME280;6045;42.682;23.294;2023-02-03T08:11:14;95190.50;;;13.13;37.78
11971;BME280;6045;42.682;23.294;2023-02-03T08:13:41;95189.25;;;12.86;37.66
11971;BME280;6045;42.682;23.294;2023-02-03T08:16:08;95186.50;;;13.04;37.62
11971;BME280;6045;42.682;23.294;2023-02-03T08:18:35;95177.94;;;13.48;37.17
11971;BME280;6045;42.682;23.294;2023-02-03T08:21:03;95182.44;;;13.83;36.99
11971;BME280;6045;42.682;23.294;2023-02-03T08:23:30;95189.13;;;13.68;36.04
11971;BME280;6045;42.682;23.294;2023-02-03T08:25:57;95192.41;;;13.47;36.48
11971;BME280;6045;42.682;23.294;2023-02-03T08:28:24;95187.69;;;12.67;37.78
11971;BME280;6045;42.682;23.294;2023-02-03T08:30:50;95177.16;;;12.95;37.34
11971;BME280;6045;42.682;23.294;2023-02-03T08:33:17;95190.56;;;12.83;36.89
11971;BME280;6045;42.682;23.294;2023-02-03T08:35:45;95192.44;;;12.94;37.33
11971;BME280;6045;42.682;23.294;2023-02-03T08:38:14;95196.47;;;13.38;36.76
11971;BME280;6045;42.682;23.294;2023-02-03T08:40:41;95207.72;;;13.35;36.47
11971;BME280;6045;42.682;23.294;2023-02-03T08:43:08;95204.22;;;13.46;36.99
11971;BME280;6045;42.682;23.294;2023-02-03T08:45:35;95208.78;;;12.15;36.81
11971;BME280;6045;42.682;23.294;2023-02-03T08:48:02;95214.00;;;12.28;38.39
11971;BME280;6045;42.682;23.294;2023-02-03T08:50:29;95225.56;;;11.25;39.92
11971;BME280;6045;42.682;23.294;2023-02-03T08:52:55;95229.31;;;10.93;41.56
11971;BME280;6045;42.682;23.294;2023-02-03T08:55:24;95225.44;;;10.89;42.37
11971;BME280;6045;42.682;23.294;2023-02-03T08:57:50;95226.66;;;11.18;41.90
11971;BME280;6045;42.682;23.294;2023-02-03T09:00:18;95221.66;;;11.28;41.38
11971;BME280;6045;42.682;23.294;2023-02-03T09:02:45;95227.63;;;11.48;40.65
11971;BME280;6045;42.682;23.294;2023-02-03T09:05:12;95233.09;;;10.85;41.36
11971;BME280;6045;42.682;23.294;2023-02-03T09:07:40;95222.53;;;9.44;45.21
11971;BME280;6045;42.682;23.294;2023-02-03T09:10:07;95219.00;;;9.63;45.88
11971;BME280;6045;42.682;23.294;2023-02-03T09:12:35;95224.53;;;9.75;45.71
11971;BME280;6045;42.682;23.294;2023-02-03T09:15:02;95224.94;;;9.79;45.29
11971;BME280;6045;42.682;23.294;2023-02-03T09:17:29;95222.59;;;9.25;45.88
11971;BME280;6045;42.682;23.294;2023-02-03T09:19:56;95227.72;;;8.13;49.28
11971;BME280;6045;42.682;23.294;2023-02-03T09:22:23;95225.16;;;7.79;50.95
11971;BME280;6045;42.682;23.294;2023-02-03T09:24:49;95229.00;;;8.24;50.82
11971;BME280;6045;42.682;23.294;2023-02-03T09:27:16;95219.22;;;8.31;49.95
11971;BME280;6045;42.682;23.294;2023-02-03T09:29:44;95235.66;;;7.53;50.87
11971;BME280;6045;42.682;23.294;2023-02-03T09:32:11;95234.31;;;6.80;51.75
11971;BME280;6045;42.682;23.294;2023-02-03T09:34:38;95227.94;;;7.03;54.00
11971;BME280;6045;42.682;23.294;2023-02-03T09:37:05;95223.22;;;8.07;51.26
11971;BME280;6045;42.682;23.294;2023-02-03T09:39:32;95214.97;;;8.69;48.27
11971;BME280;6045;42.682;23.294;2023-02-03T09:42:09;95219.16;;;8.24;48.45
11971;BME280;6045;42.682;23.294;2023-02-03T09:44:49;95210.03;;;8.40;48.74
11971;BME280;6045;42.682;23.294;2023-02-03T09:47:23;95201.63;;;8.43;48.27
11971;BME280;6045;42.682;23.294;2023-02-03T09:49:52;95207.41;;;8.79;45.31
11971;BME280;6045;42.682;23.294;2023-02-03T09:52:22;95222.78;;;8.71;45.68
11971;BME280;6045;42.682;23.294;2023-02-03T09:54:55;95210.06;;;8.79;45.63
11971;BME280;6045;42.682;23.294;2023-02-03T09:57:26;95209.06;;;9.97;44.50
11971;BME280;6045;42.682;23.294;2023-02-03T09:59:56;95203.16;;;10.70;42.78
11971;BME280;6045;42.682;23.294;2023-02-03T10:02:36;95201.88;;;11.04;40.25
11971;BME280;6045;42.682;23.294;2023-02-03T10:05:15;95199.13;;;10.86;40.72
11971;BME280;6045;42.682;23.294;2023-02-03T10:07:50;95191.47;;;10.27;40.64
11971;BME280;6045;42.682;23.294;2023-02-03T10:10:27;95196.72;;;9.19;42.75
11971;BME280;6045;42.682;23.294;2023-02-03T10:13:12;95198.19;;;8.75;44.26
11971;BME280;6045;42.682;23.294;2023-02-03T10:15:59;95198.19;;;8.69;44.93
11971;BME280;6045;42.682;23.294;2023-02-03T10:18:32;95197.94;;;8.31;47.19
11971;BME280;6045;42.682;23.294;2023-02-03T10:21:04;95185.53;;;8.10;47.66
11971;BME280;6045;42.682;23.294;2023-02-03T10:23:39;95187.06;;;8.46;47.22
11971;BME280;6045;42.682;23.294;2023-02-03T10:26:09;95184.44;;;8.59;47.25
11971;BME280;6045;42.682;23.294;2023-02-03T10:28:41;95179.72;;;7.81;46.44
11971;BME280;6045;42.682;23.294;2023-02-03T10:31:17;95173.53;;;7.67;49.11
11971;BME280;6045;42.682;23.294;2023-02-03T10:33:45;95185.00;;;7.74;47.50
11971;BME280;6045;42.682;23.294;2023-02-03T10:36:18;95174.75;;;7.65;45.35
11971;BME280;6045;42.682;23.294;2023-02-03T10:38:55;95179.53;;;7.41;46.44
11971;BME280;6045;42.682;23.294;2023-02-03T10:41:26;95178.34;;;7.50;46.41
11971;BME280;6045;42.682;23.294;2023-02-03T10:43:54;95178.69;;;7.07;48.41
11971;BME280;6045;42.682;23.294;2023-02-03T10:46:27;95186.50;;;6.80;49.47
11971;BME280;6045;42.682;23.294;2023-02-03T10:48:55;95196.13;;;6.60;49.83
11971;BME280;6045;42.682;23.294;2023-02-03T10:51:23;95190.75;;;6.54;49.59
11971;BME280;6045;42.682;23.294;2023-02-03T10:53:50;95192.97;;;6.50;50.02
11971;BME280;6045;42.682;23.294;2023-02-03T10:56:20;95190.38;;;6.57;51.15
11971;BME280;6045;42.682;23.294;2023-02-03T10:58:50;95194.03;;;6.56;50.07
11971;BME280;6045;42.682;23.294;2023-02-03T11:01:19;95199.69;;;6.46;47.22
11971;BME280;6045;42.682;23.294;2023-02-03T11:03:57;95193.47;;;6.39;47.30
11971;BME280;6045;42.682;23.294;2023-02-03T11:06:25;95193.47;;;6.18;48.07
11971;BME280;6045;42.682;23.294;2023-02-03T11:08:52;95188.84;;;6.27;49.22
11971;BME280;6045;42.682;23.294;2023-02-03T11:11:21;95185.72;;;6.38;49.13
11971;BME280;6045;42.682;23.294;2023-02-03T11:13:54;95181.25;;;6.17;48.25
11971;BME280;6045;42.682;23.294;2023-02-03T11:16:22;95187.81;;;6.21;48.88
11971;BME280;6045;42.682;23.294;2023-02-03T11:18:56;95182.75;;;6.05;49.15
11971;BME280;6045;42.682;23.294;2023-02-03T11:21:27;95172.59;;;5.94;49.41
11971;BME280;6045;42.682;23.294;2023-02-03T11:24:00;95176.16;;;6.22;48.06
11971;BME280;6045;42.682;23.294;2023-02-03T11:26:31;95167.16;;;6.16;49.16
11971;BME280;6045;42.682;23.294;2023-02-03T11:29:01;95159.22;;;6.02;47.37
11971;BME280;6045;42.682;23.294;2023-02-03T11:31:32;95152.50;;;6.48;47.15
11971;BME280;6045;42.682;23.294;2023-02-03T11:34:03;95141.38;;;8.29;44.29
11971;BME280;6045;42.682;23.294;2023-02-03T11:36:32;95139.34;;;8.51;41.50
11971;BME280;6045;42.682;23.294;2023-02-03T11:39:15;95132.31;;;9.35;40.83
11971;BME280;6045;42.682;23.294;2023-02-03T11:41:42;95139.16;;;9.69;39.17
11971;BME280;6045;42.682;23.294;2023-02-03T11:44:11;95133.63;;;10.08;38.14
11971;BME280;6045;42.682;23.294;2023-02-03T11:46:38;95134.19;;;10.23;37.85
11971;BME280;6045;42.682;23.294;2023-02-03T11:49:11;95138.09;;;11.26;37.75
11971;BME280;6045;42.682;23.294;2023-02-03T11:51:50;95121.56;;;12.61;35.69
11971;BME280;6045;42.682;23.294;2023-02-03T11:54:25;95120.69;;;12.90;31.75
11971;BME280;6045;42.682;23.294;2023-02-03T11:57:21;95127.16;;;12.00;32.63
11971;BME280;6045;42.682;23.294;2023-02-03T12:00:02;95127.78;;;12.84;31.99
11971;BME280;6045;42.682;23.294;2023-02-03T12:09:00;95117.09;;;11.84;32.36
11971;BME280;6045;42.682;23.294;2023-02-03T12:11:43;95120.63;;;11.23;32.44
11971;BME280;6045;42.682;23.294;2023-02-03T12:14:25;95121.13;;;10.02;34.00
11971;BME280;6045;42.682;23.294;2023-02-03T12:20:04;95125.16;;;9.09;35.75
11971;BME280;6045;42.682;23.294;2023-02-03T12:22:45;95130.75;;;8.62;36.35
11971;BME280;6045;42.682;23.294;2023-02-03T12:25:26;95122.06;;;9.25;35.77
11971;BME280;6045;42.682;23.294;2023-02-03T12:28:03;95119.13;;;9.46;34.97
11971;BME280;6045;42.682;23.294;2023-02-03T12:30:35;95125.75;;;9.82;34.43
11971;BME280;6045;42.682;23.294;2023-02-03T12:33:09;95120.72;;;9.54;35.58
11971;BME280;6045;42.682;23.294;2023-02-03T12:35:43;95109.31;;;9.34;36.24
11971;BME280;6045;42.682;23.294;2023-02-03T12:38:18;95114.34;;;8.52;37.54
11971;BME280;6045;42.682;23.294;2023-02-03T12:40:49;95120.03;;;8.22;38.27
11971;BME280;6045;42.682;23.294;2023-02-03T12:43:23;95114.88;;;7.95;39.57
11971;BME280;6045;42.682;23.294;2023-02-03T12:45:54;95106.66;;;7.96;39.60
11971;BME280;6045;42.682;23.294;2023-02-03T12:48:26;95099.72;;;8.02;39.91
11971;BME280;6045;42.682;23.294;2023-02-03T12:50:59;95101.63;;;9.00;39.88
11971;BME280;6045;42.682;23.294;2023-02-03T12:53:31;95088.47;;;10.00;36.12
11971;BME280;6045;42.682;23.294;2023-02-03T12:56:03;95093.53;;;10.70;35.47
11971;BME280;6045;42.682;23.294;2023-02-03T12:58:34;95088.41;;;11.12;34.28
11971;BME280;6045;42.682;23.294;2023-02-03T13:01:06;95072.44;;;11.05;34.23
11971;BME280;6045;42.682;23.294;2023-02-03T13:03:40;95065.56;;;12.00;33.79
11971;BME280;6045;42.682;23.294;2023-02-03T13:06:13;95061.66;;;13.01;33.31
11971;BME280;6045;42.682;23.294;2023-02-03T13:08:45;95072.13;;;14.01;30.91
11971;BME280;6045;42.682;23.294;2023-02-03T13:11:20;95066.06;;;13.94;31.22
11971;BME280;6045;42.682;23.294;2023-02-03T13:13:53;95073.47;;;12.24;32.44
11971;BME280;6045;42.682;23.294;2023-02-03T13:16:25;95074.97;;;11.36;34.68
11971;BME280;6045;42.682;23.294;2023-02-03T13:18:57;95078.16;;;10.66;35.83
11971;BME280;6045;42.682;23.294;2023-02-03T13:21:26;95086.50;;;9.82;37.18
11971;BME280;6045;42.682;23.294;2023-02-03T13:23:54;95079.72;;;9.48;38.12
11971;BME280;6045;42.682;23.294;2023-02-03T13:26:41;95079.50;;;8.53;40.48
11971;BME280;6045;42.682;23.294;2023-02-03T13:29:29;95073.78;;;8.37;41.53
11971;BME280;6045;42.682;23.294;2023-02-03T13:32:09;95082.78;;;8.55;42.21
11971;BME280;6045;42.682;23.294;2023-02-03T13:34:52;95074.31;;;9.99;39.68
11971;BME280;6045;42.682;23.294;2023-02-03T13:37:36;95073.44;;;11.47;36.89